Etusivu
METAR-TAF:

METAR-TAF

Lentoasemat :

Cheboygan County Airport

Cheboygan, Michigan, Yhdysvallat

Leveyspiiri: 45-39-13N, Pituuspiiri: 084-31-09W, korkeus merenpinnasta: 195 m

Tämänhetkinen sää

Tämä raportti tehtiin 2 tuntia ja 39 minuuttia sitten, kello 12.55 UTC
Tuuli 4 kn lounaasta
Lämpötila 3°C
Kosteus 93%
Ilmanpaine 1011 hPa
Näkyvyys: 16.1 km
selkeää

METAR: KSLH 141255Z AUTO 23004KT 10SM CLR 03/02 A2985 RMK AO2 T00260015

Aika: 11:34 (15:34 UTC)


TAF: puuttuu

Säähavainnot ja -ennusteet yli 4000 lentoasemalta (METAR- ja TAF-raportit).

Käytössä olevat sääasemat on merkitty karttaan keltaisilla ja punaisilla pisteillä.

Aseta hiiri pisteen päälle nähdäksesi sääaseman nimen.

Klikkaa sitten nähdäksesi säähavainnot ja -ennusteet.

Kartan vaihtaminen: klikkaa mustalla rastilla varustettuja vihreitä pisteitä, niin voit zoomata sisään; viivalla varustettua vihreää pistettä, niin voit zoomata ulos tai vihreitä nuolia, niin pääset viereisille kartoille.


METAR-TAF: